Time;durP1;ratioP1;P1;durP2;ratioP2;P2;SDS_P1;SDS_P2;PMS_P1;PMS_P2;Temp;Humidity;BMP_temperature;BMP_pressure;BME280_temperature;BME280_humidity;BME280_pressure;Samples;Min_cycle;Max_cycle;Signal;HPM_P1;HPM_P2
2021/10/15 00:01:16;;;;;;;1.30;0.77;;;8.80;99.90;;;;;;5097168;28;20453;-51
2021/10/15 00:03:48;;;;;;;1.47;0.90;;;8.70;99.90;;;;;;5096527;28;20481;-53
2021/10/15 00:06:17;;;;;;;2.67;1.03;;;8.70;99.90;;;;;;5097263;28;20465;-54
2021/10/15 00:08:47;;;;;;;1.40;0.80;;;8.60;99.90;;;;;;5095852;28;20544;-50
2021/10/15 00:11:14;;;;;;;3.17;0.90;;;8.50;99.90;;;;;;5095432;28;20861;-54
2021/10/15 00:13:46;;;;;;;1.30;0.97;;;8.40;99.90;;;;;;5056619;28;20579;-49
2021/10/15 00:16:17;;;;;;;1.40;0.90;;;8.30;99.90;;;;;;5057220;28;20459;-54
2021/10/15 00:18:53;;;;;;;1.63;0.97;;;8.30;99.90;;;;;;5057413;28;20739;-54
2021/10/15 00:21:22;;;;;;;1.77;0.90;;;8.20;99.90;;;;;;5058242;28;20862;-55
2021/10/15 00:23:50;;;;;;;1.30;1.00;;;8.10;99.90;;;;;;5057349;28;20963;-53
2021/10/15 00:26:20;;;;;;;2.83;0.90;;;8.10;99.90;;;;;;5056581;28;20474;-53
2021/10/15 00:28:50;;;;;;;1.83;0.80;;;8.10;99.90;;;;;;5055748;28;20502;-54
2021/10/15 00:31:18;;;;;;;6.90;0.93;;;8.10;99.90;;;;;;5055486;28;20444;-54
2021/10/15 00:33:51;;;;;;;2.33;0.90;;;8.00;99.90;;;;;;5055910;28;20459;-52
2021/10/15 00:36:18;;;;;;;2.80;1.37;;;8.00;99.90;;;;;;5056921;28;20455;-55
2021/10/15 00:38:49;;;;;;;1.60;0.83;;;8.10;99.90;;;;;;5058082;28;20778;-54
2021/10/15 00:41:22;;;;;;;1.23;0.90;;;8.00;99.90;;;;;;5057743;28;20450;-51
2021/10/15 00:44:00;;;;;;;1.70;0.80;;;8.10;99.90;;;;;;5056733;28;21073;-52
2021/10/15 00:46:27;;;;;;;1.67;0.80;;;8.00;99.90;;;;;;5056510;28;20458;-51
2021/10/15 00:48:56;;;;;;;2.23;0.90;;;8.00;99.90;;;;;;5054336;28;20549;-54
2021/10/15 00:51:27;;;;;;;1.47;0.80;;;8.00;99.90;;;;;;5055537;28;20911;-55
2021/10/15 00:53:58;;;;;;;1.90;0.73;;;8.00;99.90;;;;;;5055853;28;20942;-54
2021/10/15 00:56:29;;;;;;;2.33;0.93;;;8.00;99.90;;;;;;5056700;28;20442;-55
2021/10/15 00:58:58;;;;;;;2.07;0.90;;;8.00;99.90;;;;;;5056797;28;20520;-54
2021/10/15 01:01:25;;;;;;;1.50;0.73;;;7.90;99.90;;;;;;5056159;28;20490;-54
2021/10/15 01:03:57;;;;;;;1.80;0.93;;;8.10;99.90;;;;;;5057249;28;21001;-54
2021/10/15 01:06:25;;;;;;;1.90;0.80;;;8.20;99.90;;;;;;5057191;28;20914;-48
2021/10/15 01:08:54;;;;;;;1.37;0.70;;;8.20;99.90;;;;;;5057171;28;20455;-51
2021/10/15 01:11:23;;;;;;;1.30;0.70;;;8.20;99.90;;;;;;5057149;28;20483;-51
2021/10/15 01:13:52;;;;;;;2.03;0.80;;;8.10;99.90;;;;;;5094910;28;20754;-48
2021/10/15 01:16:27;;;;;;;1.83;0.90;;;8.00;99.90;;;;;;5097634;28;20442;-49
2021/10/15 01:18:58;;;;;;;5.80;0.90;;;7.80;99.90;;;;;;5097494;28;20876;-49
2021/10/15 01:21:29;;;;;;;1.13;0.80;;;7.80;99.90;;;;;;5097287;28;20453;-50
2021/10/15 01:23:58;;;;;;;1.33;0.80;;;7.70;99.90;;;;;;5097177;28;20486;-49
2021/10/15 01:26:26;;;;;;;3.47;1.00;;;7.70;99.90;;;;;;5095664;28;20528;-53
2021/10/15 01:28:54;;;;;;;6.73;0.97;;;7.70;99.90;;;;;;5097399;28;20460;-50
2021/10/15 01:31:24;;;;;;;2.07;0.90;;;7.60;99.90;;;;;;5096982;28;20445;-54
2021/10/15 01:33:51;;;;;;;1.60;0.80;;;7.60;99.90;;;;;;5096567;28;20548;-54
2021/10/15 01:36:19;;;;;;;1.10;0.70;;;7.60;99.90;;;;;;5097149;28;20449;-53
2021/10/15 01:38:48;;;;;;;1.70;0.90;;;7.60;99.90;;;;;;5097379;28;20746;-54
2021/10/15 01:41:15;;;;;;;1.10;0.70;;;7.70;99.90;;;;;;5096885;28;20450;-54
2021/10/15 01:43:42;;;;;;;1.37;0.80;;;7.70;99.90;;;;;;5096929;28;20485;-51
2021/10/15 01:46:09;;;;;;;1.10;0.70;;;7.70;99.90;;;;;;5095024;28;20442;-55
2021/10/15 01:48:38;;;;;;;1.73;0.90;;;7.80;99.90;;;;;;5095506;28;20459;-52
2021/10/15 01:51:05;;;;;;;1.17;0.77;;;7.80;99.90;;;;;;5096531;28;20476;-51
2021/10/15 01:53:32;;;;;;;1.53;0.83;;;7.90;99.90;;;;;;5096643;28;20460;-49
2021/10/15 01:56:01;;;;;;;1.40;0.80;;;7.90;99.90;;;;;;5096164;28;20659;-54
2021/10/15 01:58:28;;;;;;;1.33;0.83;;;7.90;99.90;;;;;;5096336;28;20483;-50
2021/10/15 02:00:55;;;;;;;1.30;0.90;;;7.90;99.90;;;;;;5095202;28;20448;-53
2021/10/15 02:03:22;;;;;;;1.23;0.63;;;7.90;99.90;;;;;;5093563;28;20458;-50
2021/10/15 02:05:51;;;;;;;1.23;0.70;;;7.80;99.90;;;;;;5093508;28;20481;-50
2021/10/15 02:08:19;;;;;;;1.70;0.80;;;7.90;99.90;;;;;;5093494;28;20713;-54
2021/10/15 02:10:46;;;;;;;0.93;0.63;;;7.90;99.90;;;;;;5092668;28;20544;-54
2021/10/15 02:13:14;;;;;;;1.30;0.80;;;7.90;99.90;;;;;;5092267;28;20576;-54
2021/10/15 02:15:42;;;;;;;0.90;0.60;;;8.00;99.90;;;;;;5093489;28;20460;-52
2021/10/15 02:18:09;;;;;;;1.53;0.80;;;8.10;99.90;;;;;;5092918;28;20461;-51
2021/10/15 02:20:36;;;;;;;2.30;0.80;;;8.10;99.90;;;;;;5095117;28;20446;-50
2021/10/15 02:23:04;;;;;;;1.20;0.70;;;8.20;99.90;;;;;;5095844;28;20449;-54
2021/10/15 02:25:31;;;;;;;3.10;0.80;;;8.20;99.90;;;;;;5096132;28;20483;-51
2021/10/15 02:27:58;;;;;;;1.07;0.60;;;8.20;99.90;;;;;;5096210;28;20548;-50
2021/10/15 02:30:28;;;;;;;1.73;0.80;;;8.10;99.90;;;;;;5095648;28;20442;-51
2021/10/15 02:32:56;;;;;;;1.77;0.80;;;8.10;99.90;;;;;;5095738;28;20480;-50
2021/10/15 02:35:23;;;;;;;1.20;0.80;;;8.00;99.90;;;;;;5096461;28;20872;-47
2021/10/15 02:37:50;;;;;;;0.90;0.50;;;8.00;99.90;;;;;;5096083;28;20548;-52
2021/10/15 02:40:18;;;;;;;1.30;0.70;;;8.00;99.90;;;;;;5096511;28;20540;-47
2021/10/15 02:42:45;;;;;;;1.00;0.50;;;8.00;99.90;;;;;;5095807;28;20457;-49
2021/10/15 02:45:12;;;;;;;1.07;0.53;;;8.00;99.90;;;;;;5096340;28;20481;-51
2021/10/15 02:47:41;;;;;;;1.33;0.80;;;8.00;99.90;;;;;;5096122;28;20881;-52
2021/10/15 02:50:08;;;;;;;1.13;0.67;;;8.00;99.90;;;;;;5096086;28;20449;-48
2021/10/15 02:52:36;;;;;;;1.23;0.60;;;8.00;99.90;;;;;;5095827;28;20540;-51
2021/10/15 02:55:03;;;;;;;1.10;0.80;;;7.90;99.90;;;;;;5095028;28;21002;-53
2021/10/15 02:57:30;;;;;;;1.20;0.83;;;8.00;99.90;;;;;;5094332;28;20723;-51
2021/10/15 02:59:58;;;;;;;1.90;0.60;;;8.00;99.90;;;;;;5095301;28;20877;-52
2021/10/15 03:02:25;;;;;;;1.10;0.70;;;8.00;99.90;;;;;;5095060;28;20437;-53
2021/10/15 03:04:53;;;;;;;1.67;0.60;;;8.00;99.90;;;;;;5094033;28;20772;-54
2021/10/15 03:07:20;;;;;;;1.10;0.70;;;8.00;99.90;;;;;;5093853;28;20921;-48
2021/10/15 03:09:49;;;;;;;2.10;0.90;;;8.00;99.90;;;;;;5093628;28;20911;-54
2021/10/15 03:12:16;;;;;;;0.97;0.70;;;8.00;99.90;;;;;;5097323;28;20520;-55
2021/10/15 03:14:44;;;;;;;1.80;0.80;;;8.00;99.90;;;;;;5097926;28;20885;-54
2021/10/15 03:17:12;;;;;;;2.00;0.60;;;7.90;99.90;;;;;;5096935;28;20464;-53
2021/10/15 03:19:39;;;;;;;1.03;0.70;;;7.80;99.90;;;;;;5096907;28;20453;-51
2021/10/15 03:22:08;;;;;;;1.30;0.70;;;7.90;99.90;;;;;;5097573;28;20748;-53
2021/10/15 03:24:35;;;;;;;1.03;0.73;;;7.90;99.90;;;;;;5097934;28;20563;-53
2021/10/15 03:27:02;;;;;;;0.90;0.60;;;7.80;99.90;;;;;;5097597;28;20444;-53
2021/10/15 03:29:30;;;;;;;3.50;0.80;;;7.80;99.90;;;;;;5096103;28;20471;-53
2021/10/15 03:31:57;;;;;;;4.30;0.83;;;7.90;99.90;;;;;;5095926;28;20449;-51
2021/10/15 03:34:24;;;;;;;2.40;0.80;;;8.00;99.90;;;;;;5096515;28;20459;-50
2021/10/15 03:36:51;;;;;;;1.93;0.80;;;8.10;99.90;;;;;;5096146;28;20528;-51
2021/10/15 03:39:20;;;;;;;2.10;0.87;;;8.10;99.90;;;;;;5094869;28;20656;-47
2021/10/15 03:41:47;;;;;;;1.80;0.70;;;8.00;99.90;;;;;;5095121;28;20835;-52
2021/10/15 03:44:14;;;;;;;2.13;0.80;;;7.90;99.90;;;;;;5097402;28;20457;-53
2021/10/15 03:46:41;;;;;;;1.17;0.83;;;7.90;99.90;;;;;;5097042;28;20462;-53
2021/10/15 03:49:09;;;;;;;2.07;0.70;;;7.90;99.90;;;;;;5097175;28;20463;-54
2021/10/15 03:51:36;;;;;;;1.70;0.80;;;7.80;99.90;;;;;;5098080;28;20536;-53
2021/10/15 03:54:03;;;;;;;3.20;1.00;;;7.90;99.90;;;;;;5097316;28;20453;-53
2021/10/15 03:56:32;;;;;;;9.23;1.00;;;7.80;99.90;;;;;;5098497;28;20734;-53
2021/10/15 03:59:00;;;;;;;1.37;0.80;;;7.80;99.90;;;;;;5097940;28;20496;-53
2021/10/15 04:01:27;;;;;;;1.80;0.80;;;7.80;99.90;;;;;;5099001;28;20455;-52
2021/10/15 04:03:54;;;;;;;1.20;0.60;;;7.90;99.90;;;;;;5097923;28;20489;-52
2021/10/15 04:06:21;;;;;;;2.47;0.70;;;7.80;99.90;;;;;;5098459;28;20485;-47
2021/10/15 04:08:48;;;;;;;2.13;0.80;;;7.90;99.90;;;;;;5098140;28;20556;-52
2021/10/15 04:11:17;;;;;;;1.40;0.90;;;8.10;99.90;;;;;;5096194;28;20445;-49
2021/10/15 04:13:46;;;;;;;1.20;0.70;;;8.10;99.90;;;;;;5096830;28;20773;-50
2021/10/15 04:16:13;;;;;;;1.73;0.67;;;8.00;99.90;;;;;;5097343;28;20442;-53
2021/10/15 04:18:40;;;;;;;2.47;0.73;;;8.10;99.90;;;;;;5097227;28;20442;-51
2021/10/15 04:21:07;;;;;;;1.40;0.63;;;8.20;99.90;;;;;;5097481;28;20732;-53
2021/10/15 04:23:34;;;;;;;1.83;0.90;;;8.10;99.90;;;;;;5095589;28;20460;-49
2021/10/15 04:26:02;;;;;;;2.13;0.70;;;8.10;99.90;;;;;;5096454;28;20801;-54
2021/10/15 04:28:29;;;;;;;2.30;0.70;;;8.10;99.90;;;;;;5097425;28;20460;-53
2021/10/15 04:30:58;;;;;;;1.40;0.70;;;8.20;99.90;;;;;;5098452;28;20452;-50
2021/10/15 04:33:25;;;;;;;3.60;0.70;;;8.20;99.90;;;;;;5098448;28;20464;-53
2021/10/15 04:35:52;;;;;;;1.10;0.70;;;8.10;99.90;;;;;;5098455;28;20449;-53
2021/10/15 04:38:19;;;;;;;1.33;0.70;;;8.10;99.90;;;;;;5098083;28;20453;-54
2021/10/15 04:40:46;;;;;;;1.07;0.60;;;8.00;99.90;;;;;;5097518;28;20556;-53
2021/10/15 04:43:14;;;;;;;1.03;0.70;;;8.00;99.90;;;;;;5098142;28;20548;-54
2021/10/15 04:45:41;;;;;;;1.60;0.80;;;8.00;99.90;;;;;;5096069;28;20787;-55
2021/10/15 04:48:09;;;;;;;1.20;0.80;;;7.90;99.90;;;;;;5096223;28;20455;-53
2021/10/15 04:50:37;;;;;;;1.20;0.60;;;7.90;99.90;;;;;;5096598;28;20763;-53
2021/10/15 04:53:04;;;;;;;1.97;0.70;;;7.80;99.90;;;;;;5095889;28;20733;-53
2021/10/15 04:55:32;;;;;;;0.90;0.60;;;7.80;99.90;;;;;;5097212;28;20441;-49
2021/10/15 04:58:00;;;;;;;1.37;0.70;;;7.70;99.90;;;;;;5096655;28;20453;-54
2021/10/15 05:00:28;;;;;;;2.73;1.00;;;7.80;99.90;;;;;;5095813;28;20473;-54
2021/10/15 05:02:55;;;;;;;1.27;0.60;;;7.80;99.90;;;;;;5095318;28;20556;-49
2021/10/15 05:05:26;;;;;;;5.57;0.70;;;7.70;99.90;;;;;;5095150;28;20481;-50
2021/10/15 05:07:54;;;;;;;1.23;0.80;;;7.70;99.90;;;;;;5092752;28;20620;-54
2021/10/15 05:10:22;;;;;;;1.20;0.80;;;7.70;99.90;;;;;;5090885;28;20646;-53
2021/10/15 05:12:51;;;;;;;1.97;0.80;;;7.70;99.90;;;;;;5090515;28;20485;-51
2021/10/15 05:15:19;;;;;;;1.53;0.70;;;7.70;99.90;;;;;;5090500;28;20446;-48
2021/10/15 05:17:47;;;;;;;2.70;0.90;;;7.90;99.90;;;;;;5089382;28;20458;-48
2021/10/15 05:20:16;;;;;;;1.10;0.70;;;7.80;99.90;;;;;;5092052;28;20449;-49
2021/10/15 05:22:45;;;;;;;3.53;0.80;;;7.70;99.90;;;;;;5093702;28;20453;-55
2021/10/15 05:25:14;;;;;;;1.40;0.80;;;7.70;99.90;;;;;;5093555;28;20481;-52
2021/10/15 05:27:41;;;;;;;1.60;1.10;;;7.80;99.90;;;;;;5091692;28;20491;-51
2021/10/15 05:30:10;;;;;;;1.20;0.80;;;7.80;99.90;;;;;;5090352;28;20892;-52
2021/10/15 05:32:39;;;;;;;2.13;0.93;;;7.80;99.90;;;;;;5090648;28;20540;-51
2021/10/15 05:35:08;;;;;;;1.10;0.60;;;7.80;99.90;;;;;;5091052;28;20438;-55
2021/10/15 05:37:35;;;;;;;2.57;0.93;;;7.80;99.90;;;;;;5091605;28;20451;-52
2021/10/15 05:40:06;;;;;;;2.00;1.40;;;7.70;99.90;;;;;;5093234;28;20646;-51
2021/10/15 05:42:33;;;;;;;2.13;1.00;;;7.60;99.90;;;;;;5093080;28;20765;-50
2021/10/15 05:45:00;;;;;;;1.87;1.00;;;7.70;99.90;;;;;;5091439;28;20573;-49
2021/10/15 05:47:28;;;;;;;2.43;0.83;;;7.90;99.90;;;;;;5091920;28;20455;-52
2021/10/15 05:49:56;;;;;;;2.60;0.80;;;7.80;99.90;;;;;;5092996;28;20744;-52
2021/10/15 05:52:32;;;;;;;1.63;1.10;;;7.90;99.90;;;;;;5092742;28;20465;-49
2021/10/15 05:55:04;;;;;;;1.60;0.90;;;8.00;99.90;;;;;;5090330;28;20494;-52
2021/10/15 06:00:17;;;;;;;1.27;1.00;;;8.50;99.90;;;;;;5091033;28;20444;-49
2021/10/15 06:02:46;;;;;;;1.20;0.80;;;8.60;99.90;;;;;;5092082;28;20555;-50
2021/10/15 06:16:28;;;;;;;1.30;0.80;;;8.80;99.90;;;;;;5089410;28;21007;-49
2021/10/15 06:19:04;;;;;;;2.53;0.80;;;8.60;99.90;;;;;;5091080;28;21015;-50
2021/10/15 06:21:31;;;;;;;1.40;0.80;;;8.50;99.90;;;;;;5090749;28;20476;-52
2021/10/15 06:23:58;;;;;;;3.53;1.07;;;8.60;99.90;;;;;;5090130;28;20837;-51
2021/10/15 06:26:26;;;;;;;3.77;1.30;;;8.40;99.90;;;;;;5090965;28;20513;-51
2021/10/15 06:28:55;;;;;;;1.73;0.83;;;8.20;99.90;;;;;;5091088;28;20510;-51
2021/10/15 06:31:23;;;;;;;2.33;0.80;;;8.10;99.90;;;;;;5091878;28;20533;-51
2021/10/15 06:33:50;;;;;;;1.43;0.93;;;8.10;99.90;;;;;;5092929;28;20536;-49
2021/10/15 06:36:17;;;;;;;1.80;1.20;;;8.10;99.90;;;;;;5092904;28;20446;-50
2021/10/15 06:38:44;;;;;;;3.05;1.00;;;8.20;99.90;;;;;;5092612;28;20936;-53
2021/10/15 06:41:12;;;;;;;1.90;1.00;;;8.30;99.90;;;;;;5092214;28;20203;-50
2021/10/15 06:43:39;;;;;;;1.93;1.00;;;8.60;99.90;;;;;;5090985;28;20457;-49
2021/10/15 06:46:08;;;;;;;1.07;0.87;;;8.80;99.90;;;;;;5093586;28;20549;-52
2021/10/15 06:48:36;;;;;;;1.30;0.80;;;9.10;99.90;;;;;;5094267;28;20479;-48
2021/10/15 06:51:03;;;;;;;1.50;1.10;;;9.00;99.90;;;;;;5091888;28;20436;-50
2021/10/15 06:53:31;;;;;;;5.10;1.10;;;8.80;99.90;;;;;;5092694;28;20294;-49
2021/10/15 06:55:58;;;;;;;1.47;0.90;;;8.70;99.90;;;;;;5093327;28;20532;-49
2021/10/15 06:58:25;;;;;;;2.50;1.00;;;8.50;99.90;;;;;;5094633;28;20461;-52
2021/10/15 07:00:53;;;;;;;2.23;1.00;;;8.40;99.90;;;;;;5094882;28;20534;-48
2021/10/15 07:03:21;;;;;;;1.77;0.97;;;8.70;99.90;;;;;;5094102;28;20558;-49
2021/10/15 07:05:48;;;;;;;4.40;1.17;;;8.70;99.90;;;;;;5092375;28;20481;-49
2021/10/15 07:08:16;;;;;;;1.43;0.90;;;8.80;99.90;;;;;;5091562;28;20471;-50
2021/10/15 07:10:43;;;;;;;3.20;1.43;;;9.10;99.90;;;;;;5090895;28;20534;-49
2021/10/15 07:13:14;;;;;;;1.87;1.10;;;9.30;99.90;;;;;;5092105;28;20898;-49
2021/10/15 07:15:43;;;;;;;2.30;1.10;;;9.70;99.90;;;;;;5093061;28;20540;-50
2021/10/15 07:18:10;;;;;;;1.73;1.00;;;9.90;99.90;;;;;;5089882;28;20465;-50
2021/10/15 07:20:39;;;;;;;1.23;0.87;;;9.90;99.90;;;;;;5092197;28;20449;-52
2021/10/15 07:23:06;;;;;;;1.63;1.03;;;9.80;99.90;;;;;;5095610;28;20457;-48
2021/10/15 07:25:40;;;;;;;1.50;1.00;;;9.70;99.90;;;;;;5096462;28;20517;-49
2021/10/15 07:28:09;;;;;;;2.90;1.00;;;9.70;99.90;;;;;;5095690;28;20825;-51
2021/10/15 07:30:43;;;;;;;1.30;0.90;;;9.80;99.90;;;;;;5096096;28;20508;-54
2021/10/15 07:33:12;;;;;;;2.40;1.00;;;9.90;99.90;;;;;;5097530;28;20460;-54
2021/10/15 07:35:41;;;;;;;1.40;0.80;;;10.20;99.90;;;;;;5097953;28;20430;-52
2021/10/15 07:38:10;;;;;;;2.40;0.80;;;10.10;99.90;;;;;;5096462;28;20487;-49
2021/10/15 07:40:38;;;;;;;2.13;1.00;;;10.00;99.90;;;;;;5094810;28;20437;-49
2021/10/15 07:43:06;;;;;;;6.05;1.02;;;10.00;99.90;;;;;;5095868;28;20535;-50
2021/10/15 07:45:33;;;;;;;1.80;0.80;;;9.90;99.90;;;;;;5095680;28;20219;-48
2021/10/15 07:48:01;;;;;;;2.27;1.23;;;10.00;99.90;;;;;;5093916;28;20849;-56
2021/10/15 07:50:29;;;;;;;1.17;0.70;;;10.20;99.90;;;;;;5093603;28;20530;-49
2021/10/15 07:52:58;;;;;;;2.47;0.83;;;10.10;99.90;;;;;;5092011;28;20544;-50
2021/10/15 07:55:26;;;;;;;3.43;1.10;;;10.10;99.90;;;;;;5093013;28;20841;-51
2021/10/15 07:57:54;;;;;;;2.10;1.00;;;10.30;99.90;;;;;;5094139;28;20453;-51
2021/10/15 08:00:25;;;;;;;1.87;1.17;;;10.40;99.90;;;;;;5093458;28;20454;-51
2021/10/15 08:02:55;;;;;;;1.87;1.03;;;10.60;99.90;;;;;;5091526;28;20457;-51
2021/10/15 08:05:26;;;;;;;1.57;0.80;;;10.80;99.90;;;;;;5091574;28;20454;-51
2021/10/15 08:07:54;;;;;;;1.60;0.70;;;10.80;99.90;;;;;;5089239;28;20453;-47
2021/10/15 08:10:23;;;;;;;1.00;0.70;;;10.90;99.90;;;;;;5090219;28;20890;-46
2021/10/15 08:12:50;;;;;;;1.37;0.60;;;10.90;99.90;;;;;;5090571;28;20488;-46
2021/10/15 08:15:18;;;;;;;1.50;0.70;;;10.90;99.90;;;;;;5084390;28;20702;-47
2021/10/15 08:17:46;;;;;;;1.40;0.50;;;11.00;99.90;;;;;;5070385;28;20886;-51
2021/10/15 08:20:21;;;;;;;1.67;0.57;;;11.00;99.90;;;;;;5082265;28;20458;-52
2021/10/15 08:22:51;;;;;;;1.40;0.60;;;11.00;99.90;;;;;;5080589;28;20572;-49
2021/10/15 08:25:19;;;;;;;3.70;0.70;;;10.90;99.90;;;;;;5088016;28;20544;-51
2021/10/15 08:27:48;;;;;;;1.27;0.60;;;10.90;99.90;;;;;;5093111;28;20490;-55
2021/10/15 08:30:15;;;;;;;3.17;0.60;;;10.90;99.90;;;;;;5093691;28;20610;-55
2021/10/15 08:32:43;;;;;;;1.90;0.70;;;10.90;99.90;;;;;;5094608;28;20973;-54
2021/10/15 08:35:11;;;;;;;1.33;0.60;;;11.00;99.90;;;;;;5090999;28;20463;-54
2021/10/15 08:37:39;;;;;;;1.90;0.70;;;11.00;99.90;;;;;;5090155;28;20438;-52
2021/10/15 08:40:10;;;;;;;1.73;0.70;;;11.10;99.90;;;;;;5091310;28;20816;-51
2021/10/15 08:42:38;;;;;;;1.30;0.60;;;11.20;99.90;;;;;;5091854;28;20965;-53
2021/10/15 08:45:09;;;;;;;1.10;0.73;;;11.30;99.90;;;;;;5092671;28;20453;-49
2021/10/15 08:47:37;;;;;;;1.37;0.90;;;11.50;99.90;;;;;;5092887;28;20538;-54
2021/10/15 08:50:05;;;;;;;5.67;1.30;;;11.80;99.90;;;;;;5093557;28;20456;-53
2021/10/15 08:52:34;;;;;;;7.43;1.93;;;11.80;99.90;;;;;;5094987;28;20536;-52
2021/10/15 08:55:02;;;;;;;3.00;1.50;;;11.80;99.90;;;;;;5093917;28;20888;-51
2021/10/15 08:57:29;;;;;;;3.60;1.50;;;11.70;99.90;;;;;;5091684;28;20724;-54
2021/10/15 08:59:56;;;;;;;1.93;1.00;;;11.50;99.90;;;;;;5091650;28;20754;-50
2021/10/15 09:02:26;;;;;;;5.50;1.00;;;11.60;99.90;;;;;;5093588;28;20472;-52
2021/10/15 09:04:54;;;;;;;3.27;1.67;;;11.70;99.90;;;;;;5090392;28;20488;-51
2021/10/15 09:07:26;;;;;;;2.70;1.20;;;11.90;99.90;;;;;;5092262;28;20730;-51
2021/10/15 09:10:14;;;;;;;3.33;1.40;;;12.00;99.90;;;;;;5093435;28;20752;-50
2021/10/15 09:12:46;;;;;;;3.23;1.10;;;12.20;99.90;;;;;;5094172;28;21017;-58
2021/10/15 09:15:19;;;;;;;1.80;1.00;;;12.30;99.90;;;;;;5093856;28;20552;-58
2021/10/15 09:17:52;;;;;;;2.90;1.30;;;12.50;99.90;;;;;;5071326;28;20544;-58
2021/10/15 09:20:30;;;;;;;1.93;1.17;;;12.50;99.90;;;;;;5072280;28;20878;-58
2021/10/15 09:22:58;;;;;;;4.97;1.60;;;12.70;99.90;;;;;;5072155;28;20897;-59
2021/10/15 09:25:44;;;;;;;4.20;1.53;;;12.80;99.90;;;;;;5086364;28;20774;-59
2021/10/15 09:28:17;;;;;;;3.10;1.03;;;13.00;99.90;;;;;;5093364;28;20967;-59
2021/10/15 09:30:50;;;;;;;2.43;1.13;;;13.10;99.90;;;;;;5091314;28;20663;-58
2021/10/15 09:33:21;;;;;;;3.13;1.23;;;13.20;99.90;;;;;;5092639;28;20622;-59
2021/10/15 09:36:05;;;;;;;6.93;1.77;;;13.10;99.90;;;;;;5090621;28;21114;-59
2021/10/15 09:38:33;;;;;;;4.00;1.90;;;12.90;99.90;;;;;;5090106;28;20743;-59
2021/10/15 09:41:01;;;;;;;1.50;1.00;;;13.00;99.90;;;;;;5091079;28;20453;-58
2021/10/15 09:43:34;;;;;;;2.43;1.33;;;13.10;99.90;;;;;;5090946;28;20758;-59
2021/10/15 09:46:02;;;;;;;3.97;1.40;;;13.00;99.90;;;;;;5090250;28;20458;-59
2021/10/15 09:48:36;;;;;;;1.80;0.80;;;13.00;99.90;;;;;;5088460;28;20661;-60
2021/10/15 09:51:12;;;;;;;1.70;1.03;;;13.10;99.90;;;;;;5087902;28;20740;-59
2021/10/15 09:53:41;;;;;;;3.57;1.30;;;13.20;99.90;;;;;;5087679;28;20445;-58
2021/10/15 09:56:12;;;;;;;1.50;1.00;;;13.40;99.90;;;;;;5085827;28;20454;-59
2021/10/15 09:58:42;;;;;;;1.20;0.90;;;13.60;99.90;;;;;;5085683;28;20449;-59
2021/10/15 10:01:09;;;;;;;1.30;0.90;;;13.70;99.90;;;;;;5087522;28;20457;-59
2021/10/15 10:03:38;;;;;;;2.20;0.97;;;13.90;99.90;;;;;;5088343;28;20730;-59
2021/10/15 10:06:06;;;;;;;1.43;1.00;;;14.20;99.90;;;;;;5090220;28;20848;-59
2021/10/15 10:08:37;;;;;;;1.47;0.90;;;14.30;99.90;;;;;;5092693;28;20823;-59
2021/10/15 10:11:09;;;;;;;3.37;1.27;;;14.50;99.90;;;;;;5092640;28;20448;-58
2021/10/15 10:13:38;;;;;;;1.93;0.90;;;14.50;99.90;;;;;;5092152;28;20556;-59
2021/10/15 10:16:10;;;;;;;1.77;0.90;;;14.60;99.90;;;;;;5090604;28;20511;-59
2021/10/15 10:18:43;;;;;;;1.20;0.90;;;14.70;99.90;;;;;;5090300;28;20450;-59
2021/10/15 10:21:18;;;;;;;1.60;0.90;;;14.90;99.90;;;;;;5082374;28;20454;-59
2021/10/15 10:23:50;;;;;;;1.80;0.90;;;14.90;99.90;;;;;;5072178;28;20503;-59
2021/10/15 10:26:21;;;;;;;1.03;0.70;;;15.00;99.90;;;;;;5087578;28;20608;-60
2021/10/15 10:28:59;;;;;;;1.80;0.90;;;15.20;99.90;;;;;;5087932;28;20453;-59
2021/10/15 10:31:27;;;;;;;1.10;0.90;;;15.30;99.90;;;;;;5089799;28;20902;-59
2021/10/15 10:33:58;;;;;;;1.20;0.70;;;15.40;99.90;;;;;;5089669;28;20449;-59
2021/10/15 10:36:27;;;;;;;3.27;0.90;;;15.60;99.90;;;;;;5091000;28;20458;-59
2021/10/15 10:38:55;;;;;;;1.50;0.83;;;15.70;99.90;;;;;;5091058;28;20481;-59
2021/10/15 10:41:28;;;;;;;5.03;0.90;;;15.90;99.90;;;;;;5091816;28;20889;-58
2021/10/15 10:44:16;;;;;;;1.30;0.87;;;16.20;99.90;;;;;;5089352;28;20501;-59
2021/10/15 10:47:05;;;;;;;1.17;0.70;;;16.40;99.90;;;;;;5080903;28;20850;-58
2021/10/15 10:49:35;;;;;;;1.10;0.70;;;16.60;99.90;;;;;;5090188;28;20449;-58
2021/10/15 10:52:23;;;;;;;1.17;0.70;;;16.80;99.90;;;;;;5088883;28;20750;-59
2021/10/15 10:54:50;;;;;;;1.17;0.70;;;17.00;99.90;;;;;;5088245;28;20985;-59
2021/10/15 10:57:28;;;;;;;1.10;0.80;;;17.10;99.90;;;;;;5089777;28;20553;-59
2021/10/15 11:00:20;;;;;;;1.30;0.70;;;17.20;99.90;;;;;;5089941;28;20447;-60
2021/10/15 11:02:49;;;;;;;1.50;0.80;;;17.10;99.90;;;;;;5090562;28;20441;-59
2021/10/15 11:05:32;;;;;;;3.13;0.70;;;17.20;99.90;;;;;;5088898;28;20758;-59
2021/10/15 11:08:30;;;;;;;1.70;0.80;;;17.10;99.90;;;;;;5081934;28;20633;-58
2021/10/15 11:11:43;;;;;;;2.57;0.90;;;17.10;99.90;;;;;;5082182;28;21077;-58
2021/10/15 11:14:24;;;;;;;2.67;0.87;;;17.30;99.90;;;;;;5087860;28;20549;-58
2021/10/15 11:16:52;;;;;;;1.87;0.60;;;17.50;99.90;;;;;;5083391;28;20453;-58
2021/10/15 11:19:21;;;;;;;1.80;1.50;;;17.50;99.90;;;;;;5086549;28;20441;-58
2021/10/15 11:22:04;;;;;;;2.97;0.90;;;17.40;99.90;;;;;;5085120;28;20561;-59
2021/10/15 11:24:34;;;;;;;2.23;0.90;;;17.20;99.90;;;;;;5087934;28;20952;-59
2021/10/15 11:27:16;;;;;;;2.93;0.87;;;17.30;99.90;;;;;;5088500;28;20477;-59
2021/10/15 11:29:54;;;;;;;1.00;0.80;;;17.30;99.90;;;;;;5086471;28;20449;-59
2021/10/15 11:32:36;;;;;;;1.20;0.70;;;17.20;99.90;;;;;;5073980;28;20446;-59
2021/10/15 11:35:29;;;;;;;1.50;0.50;;;17.40;99.90;;;;;;5075662;28;20898;-59
2021/10/15 11:38:25;;;;;;;1.10;0.70;;;17.20;99.90;;;;;;5051526;28;20814;-59
2021/10/15 11:40:57;;;;;;;0.70;0.50;;;17.50;99.90;;;;;;5072290;28;20466;-59
2021/10/15 11:43:27;;;;;;;0.80;0.70;;;17.50;99.90;;;;;;5073600;28;20460;-59
2021/10/15 11:45:59;;;;;;;0.80;0.50;;;17.50;99.90;;;;;;5092140;28;20472;-59
2021/10/15 11:48:29;;;;;;;0.90;0.50;;;17.40;99.90;;;;;;5095582;28;20477;-59
2021/10/15 11:51:00;;;;;;;0.90;0.43;;;17.50;99.90;;;;;;5096305;28;21130;-59
2021/10/15 11:53:39;;;;;;;0.90;0.43;;;17.40;99.90;;;;;;5096244;28;20503;-60
2021/10/15 11:56:25;;;;;;;0.83;0.50;;;17.50;99.90;;;;;;5095857;28;20456;-61
2021/10/15 11:59:00;;;;;;;1.00;0.60;;;17.50;99.90;;;;;;5093681;28;20460;-59
2021/10/15 12:01:37;;;;;;;1.77;0.70;;;17.30;99.90;;;;;;5092732;28;20449;-59
2021/10/15 12:04:07;;;;;;;1.67;0.50;;;17.20;99.90;;;;;;5095986;28;20537;-57
2021/10/15 12:06:39;;;;;;;1.00;0.50;;;17.00;99.90;;;;;;5079122;28;20442;-57
2021/10/15 12:09:15;;;;;;;0.80;0.50;;;17.00;99.90;;;;;;5095291;28;20445;-58
2021/10/15 12:11:49;;;;;;;0.90;0.40;;;16.90;99.90;;;;;;5095758;28;20469;-58
2021/10/15 12:14:21;;;;;;;0.93;0.60;;;17.00;99.90;;;;;;5094356;28;20453;-61
2021/10/15 12:16:52;;;;;;;1.30;0.63;;;17.00;99.90;;;;;;5091896;28;20472;-62
2021/10/15 12:19:25;;;;;;;1.00;0.50;;;16.90;99.90;;;;;;5095145;28;20907;-61
2021/10/15 12:22:12;;;;;;;1.27;0.67;;;16.80;99.90;;;;;;5094163;28;20452;-61
2021/10/15 12:24:43;;;;;;;5.67;0.70;;;16.80;99.90;;;;;;5094324;28;20437;-62
2021/10/15 12:27:15;;;;;;;0.80;0.50;;;16.80;99.90;;;;;;5094003;28;20572;-62
2021/10/15 12:29:48;;;;;;;0.73;0.40;;;16.80;99.90;;;;;;5096612;28;20453;-62
2021/10/15 12:32:22;;;;;;;1.07;0.57;;;16.80;99.90;;;;;;5095687;28;20797;-61
2021/10/15 12:35:10;;;;;;;1.07;0.60;;;16.90;99.90;;;;;;5093174;28;20544;-61
2021/10/15 12:37:43;;;;;;;0.90;0.60;;;16.90;99.90;;;;;;5092338;28;20557;-63
2021/10/15 12:40:31;;;;;;;0.77;0.60;;;17.00;99.90;;;;;;5095414;28;20199;-60
2021/10/15 12:43:06;;;;;;;1.00;0.60;;;16.90;99.90;;;;;;5092069;28;20515;-61
2021/10/15 12:45:37;;;;;;;2.10;0.60;;;16.80;99.90;;;;;;5094866;28;20510;-62
2021/10/15 12:48:12;;;;;;;2.63;0.60;;;16.90;99.90;;;;;;5093542;28;20520;-62
2021/10/15 12:50:41;;;;;;;1.40;0.53;;;17.00;99.90;;;;;;5093851;28;20536;-62
2021/10/15 12:53:14;;;;;;;0.97;0.63;;;17.00;99.90;;;;;;5093905;28;20963;-62
2021/10/15 12:55:53;;;;;;;1.43;0.67;;;16.90;99.90;;;;;;5093687;28;20452;-62
2021/10/15 12:58:23;;;;;;;0.93;0.50;;;16.90;99.90;;;;;;5091892;28;20469;-62
2021/10/15 13:00:55;;;;;;;3.50;0.70;;;16.90;99.90;;;;;;5093788;28;20754;-62
2021/10/15 13:03:25;;;;;;;1.27;0.73;;;16.90;99.90;;;;;;5092614;28;20452;-61
2021/10/15 13:05:59;;;;;;;0.90;0.60;;;16.90;99.90;;;;;;5091777;28;20448;-61
2021/10/15 13:08:35;;;;;;;1.07;0.50;;;16.80;99.90;;;;;;5094127;28;20481;-61
2021/10/15 13:11:17;;;;;;;0.70;0.50;;;16.80;99.90;;;;;;5094000;28;20729;-61
2021/10/15 13:13:50;;;;;;;1.27;0.67;;;16.80;99.90;;;;;;5093372;28;20473;-61
2021/10/15 13:16:23;;;;;;;1.13;0.50;;;16.90;99.90;;;;;;5091155;28;20474;-61
2021/10/15 13:18:50;;;;;;;0.97;0.50;;;16.80;99.90;;;;;;5094258;28;20460;-61
2021/10/15 13:21:19;;;;;;;1.03;0.60;;;16.80;99.90;;;;;;5092732;28;20442;-61
2021/10/15 13:23:50;;;;;;;0.60;0.50;;;16.70;99.90;;;;;;5091457;28;20489;-61